Maastricht Aachen Airport

Airport
ICAO code: 
EHBK
IATA Code: 
MST
Summary
ICAO Region: 
EUR
Territory: 
Location: 
Beek, Limburg
Serving: 
Maastricht
Elevation: 
375 ft
Coordinates: 
Aerial View: 
50° 54' 41.969" N, 5° 46' 12.518" E
Metar
Observation
EHBK 060125Z AUTO 36002KT 3900 BR NSC 02/02 Q1011
Station
Maastricht Airport Zuid Limburg
Date/Time
2021-12-06 01:25:00
Wind direction
360°
Wind speed
02 kts
Lowest cloud amount
nil significant cloud
Temperature
2°C
Dew point
2°C
Humidity
100%
QNH
1011 hPa
Weather condition
n/a

Maastricht Aachen Airport is a regional airport located 5 nm northeast of the city of Maastricht, in the town of Beek, both municipalities in the Limburg province in the Netherlands. The airport is also 15 nm northwest of Aachen, a city in Germany.

Climatology

Temperate Marine climate/Oceanic climate (Köppen climate classification Cfb). Moderately cool summer and comparatively warm winter with a temperature range of only 14°C. Prevailing south-westerly winds from the Atlantic Ocean.

Runways

Designator Length Width Surface Rops
3/21 2500 45 ASP Yes/Yes
Airport map: 
Aerial View: 

Accidents and Serious Incidents at or in the vicinity of EHBK

SKYbrary Partners:

Safety knowledge contributed by: